createdAt,value
2023-02-11T00:02:36.149Z,89.68
2023-02-11T00:05:38.731Z,89.53
2023-02-11T00:08:41.119Z,89.33
2023-02-11T00:11:43.618Z,90.38
2023-02-11T00:14:46.041Z,88.56
2023-02-11T00:17:48.490Z,87.95
2023-02-11T00:20:50.907Z,87.80
2023-02-11T00:23:54.964Z,86.91
2023-02-11T00:26:57.586Z,87.88
2023-02-11T00:30:02.286Z,88.83
2023-02-11T00:33:06.461Z,90.56
2023-02-11T00:36:12.166Z,89.27
2023-02-11T00:39:14.594Z,89.60
2023-02-11T00:42:17.126Z,89.43
2023-02-11T00:45:21.439Z,90.61
2023-02-11T00:48:23.983Z,90.73
2023-02-11T00:51:28.166Z,90.75
2023-02-11T00:54:31.665Z,91.43
2023-02-11T00:57:34.145Z,91.18
2023-02-11T01:00:36.706Z,91.01
2023-02-11T01:03:40.063Z,91.58
2023-02-11T01:06:42.610Z,90.79
2023-02-11T01:09:45.066Z,91.32
2023-02-11T01:12:47.874Z,90.73
2023-02-11T01:15:50.630Z,90.86
2023-02-11T01:18:53.302Z,90.74
2023-02-11T01:21:55.705Z,90.90
2023-02-11T01:24:58.180Z,90.85
2023-02-11T01:28:00.660Z,90.88
2023-02-11T01:31:05.194Z,91.77
2023-02-11T01:34:08.493Z,89.55
2023-02-11T01:37:12.664Z,89.45
2023-02-11T01:40:17.215Z,91.06
2023-02-11T01:43:20.772Z,91.43
2023-02-11T01:46:38.277Z,92.40
2023-02-11T01:49:47.278Z,91.65
2023-02-11T01:52:49.733Z,90.51
2023-02-11T01:56:10.949Z,91.30
2023-02-11T01:59:22.769Z,92.21
2023-02-11T02:02:37.482Z,92.61
2023-02-11T02:06:01.406Z,92.04
2023-02-11T02:09:13.284Z,92.23
2023-02-11T02:12:15.769Z,91.51
2023-02-11T02:15:19.454Z,90.63
2023-02-11T02:18:44.940Z,91.02
2023-02-11T02:22:26.208Z,90.76
2023-02-11T02:25:48.489Z,91.23
2023-02-11T02:29:23.331Z,91.05
2023-02-11T02:32:37.848Z,92.27
2023-02-11T02:35:52.230Z,90.87
2023-02-11T02:39:06.137Z,90.81
2023-02-11T02:42:09.501Z,91.46
2023-02-11T02:45:12.700Z,91.49
2023-02-11T02:48:33.027Z,92.17
2023-02-11T02:51:38.969Z,91.74
2023-02-11T02:54:56.520Z,92.37
2023-02-11T02:58:01.716Z,91.62
2023-02-11T03:01:22.406Z,90.24
2023-02-11T03:04:35.972Z,87.83
2023-02-11T03:07:57.095Z,89.29
2023-02-11T03:11:00.919Z,91.31
2023-02-11T03:14:06.487Z,91.77
2023-02-11T03:17:10.151Z,92.48
2023-02-11T03:20:15.299Z,92.53
2023-02-11T03:23:28.872Z,92.39
2023-02-11T03:26:38.587Z,92.97
2023-02-11T03:29:51.836Z,92.88
2023-02-11T03:33:01.534Z,92.44
2023-02-11T03:36:08.091Z,92.46
2023-02-11T03:39:11.291Z,92.95
2023-02-11T03:42:15.447Z,93.87
2023-02-11T03:45:20.807Z,94.44
2023-02-11T03:48:30.933Z,94.33
2023-02-11T03:51:33.980Z,95.05
2023-02-11T03:54:36.776Z,94.59
2023-02-11T03:57:39.327Z,94.92
2023-02-11T04:00:43.516Z,94.89
2023-02-11T04:03:45.912Z,95.53
2023-02-11T04:06:48.314Z,96.30
2023-02-11T04:09:50.816Z,95.93
2023-02-11T04:12:53.362Z,96.19
2023-02-11T04:15:55.783Z,96.28
2023-02-11T04:18:58.856Z,96.28
2023-02-11T04:22:01.521Z,95.56
2023-02-11T04:25:05.257Z,95.64
2023-02-11T04:28:07.717Z,94.94
2023-02-11T04:31:12.121Z,95.24
2023-02-11T04:34:14.681Z,94.72
2023-02-11T04:37:17.183Z,94.77
2023-02-11T04:40:19.765Z,95.46
2023-02-11T04:43:22.195Z,95.46
2023-02-11T04:46:25.058Z,94.99
2023-02-11T04:49:28.500Z,93.92
2023-02-11T04:52:30.938Z,93.74
2023-02-11T04:55:33.307Z,94.21
2023-02-11T04:58:35.773Z,93.61
2023-02-11T05:01:38.303Z,93.93
2023-02-11T05:04:40.831Z,93.07
2023-02-11T05:07:43.555Z,93.73
2023-02-11T05:10:47.578Z,93.87
2023-02-11T05:13:50.592Z,93.73
2023-02-11T05:16:53.173Z,94.40
2023-02-11T05:19:55.566Z,94.53
2023-02-11T05:22:57.935Z,93.99
2023-02-11T05:26:00.408Z,94.15
2023-02-11T05:29:02.939Z,93.38
2023-02-11T05:32:05.393Z,93.06
2023-02-11T05:35:09.442Z,92.74
2023-02-11T05:38:11.956Z,92.51
2023-02-11T05:41:14.379Z,93.22
2023-02-11T05:44:16.762Z,93.21
2023-02-11T05:47:19.158Z,93.76
2023-02-11T05:50:21.689Z,94.07
2023-02-11T05:53:26.768Z,94.23
2023-02-11T05:56:29.210Z,94.60
2023-02-11T05:59:31.733Z,94.75
2023-02-11T06:02:34.532Z,93.94
2023-02-11T06:05:37.024Z,93.80
2023-02-11T06:08:40.020Z,93.89
2023-02-11T06:11:42.540Z,94.04
2023-02-11T06:14:45.850Z,93.08
2023-02-11T06:17:48.266Z,93.15
2023-02-11T06:20:50.834Z,93.31
2023-02-11T06:23:53.253Z,92.56
2023-02-11T06:26:55.662Z,92.63
2023-02-11T06:29:58.546Z,91.40
2023-02-11T06:33:00.997Z,90.89
2023-02-11T06:36:04.938Z,91.13
2023-02-11T06:39:08.212Z,90.71
2023-02-11T06:42:10.721Z,90.91
2023-02-11T06:45:13.447Z,89.96
2023-02-11T06:48:16.069Z,89.58
2023-02-11T06:51:18.828Z,89.22
2023-02-11T06:54:21.286Z,89.27
2023-02-11T06:57:23.672Z,90.18
2023-02-11T07:00:26.659Z,90.90
2023-02-11T07:03:29.580Z,90.27
2023-02-11T07:06:32.218Z,89.94
2023-02-11T07:09:34.781Z,87.94
2023-02-11T07:12:37.534Z,87.08
2023-02-11T07:15:40.013Z,87.04
2023-02-11T07:18:42.736Z,86.54
2023-02-11T07:21:45.727Z,86.08
2023-02-11T07:24:48.414Z,85.56
2023-02-11T07:27:51.086Z,85.01
2023-02-11T07:30:53.626Z,84.20
2023-02-11T07:33:59.973Z,84.49
2023-02-11T07:37:02.951Z,84.12
2023-02-11T07:40:05.917Z,83.71
2023-02-11T07:43:08.445Z,84.51
2023-02-11T07:46:16.590Z,84.61
2023-02-11T07:49:18.978Z,83.55
2023-02-11T07:52:21.370Z,83.25
2023-02-11T07:55:24.106Z,82.88
2023-02-11T07:58:26.523Z,83.90
2023-02-11T08:01:29.876Z,83.94
2023-02-11T08:04:32.302Z,84.07
2023-02-11T08:07:34.658Z,83.49
2023-02-11T08:10:37.172Z,83.13
2023-02-11T08:13:40.020Z,81.35
2023-02-11T08:16:42.564Z,81.73
2023-02-11T08:19:45.025Z,82.76
2023-02-11T08:22:47.654Z,83.05
2023-02-11T08:25:50.087Z,82.53
2023-02-11T08:28:53.993Z,82.73
2023-02-11T08:31:56.488Z,81.40
2023-02-11T08:34:59.015Z,81.46
2023-02-11T08:38:01.608Z,80.37
2023-02-11T08:41:04.350Z,81.72
2023-02-11T08:44:06.983Z,82.14
2023-02-11T08:47:09.504Z,81.62
2023-02-11T08:50:12.067Z,82.02
2023-02-11T08:53:14.531Z,80.56
2023-02-11T08:56:18.194Z,79.83
2023-02-11T08:59:20.825Z,79.90
2023-02-11T09:02:23.312Z,79.83
2023-02-11T09:05:25.974Z,79.08
2023-02-11T09:08:28.436Z,78.14
2023-02-11T09:11:34.026Z,77.81
2023-02-11T09:14:36.426Z,77.06
2023-02-11T09:17:38.915Z,78.29
2023-02-11T09:20:41.626Z,78.79
2023-02-11T09:23:44.826Z,79.23
2023-02-11T09:26:47.249Z,79.61
2023-02-11T09:29:50.322Z,79.40
2023-02-11T09:32:52.755Z,80.17
2023-02-11T09:35:55.430Z,80.38
2023-02-11T09:38:59.429Z,79.90
2023-02-11T09:42:37.464Z,79.68
2023-02-11T09:45:39.972Z,80.12
2023-02-11T09:48:44.507Z,78.63
2023-02-11T09:51:55.939Z,78.83
2023-02-11T09:55:01.178Z,78.39
2023-02-11T09:58:11.114Z,77.77
2023-02-11T10:01:35.925Z,77.88
2023-02-11T10:05:16.039Z,77.35
2023-02-11T10:08:34.425Z,76.20
2023-02-11T10:12:11.070Z,75.74
2023-02-11T10:15:14.142Z,76.93
2023-02-11T10:18:38.704Z,76.83
2023-02-11T10:21:47.838Z,76.54
2023-02-11T10:24:54.564Z,77.28
2023-02-11T10:27:58.485Z,77.70
2023-02-11T10:31:03.979Z,77.47
2023-02-11T10:34:09.718Z,77.50
2023-02-11T10:37:13.915Z,78.67
2023-02-11T10:40:28.997Z,77.50
2023-02-11T10:43:32.414Z,76.23
2023-02-11T10:46:40.242Z,77.21
2023-02-11T10:49:44.463Z,77.14
2023-02-11T10:52:46.936Z,77.05
2023-02-11T10:55:52.901Z,77.07
2023-02-11T10:58:59.363Z,77.57
2023-02-11T11:02:06.080Z,78.52
2023-02-11T11:05:20.546Z,78.40
2023-02-11T11:08:44.704Z,78.42
2023-02-11T11:11:53.898Z,77.41
2023-02-11T11:15:01.759Z,76.62
2023-02-11T11:18:23.619Z,76.03
2023-02-11T11:21:35.559Z,74.19
2023-02-11T11:24:45.082Z,73.41
2023-02-11T11:27:52.093Z,73.12
2023-02-11T11:30:56.129Z,72.43
2023-02-11T11:34:00.145Z,71.25
2023-02-11T11:37:22.475Z,71.09
2023-02-11T11:40:33.707Z,70.59
2023-02-11T11:43:37.678Z,69.95
2023-02-11T11:46:42.574Z,69.75
2023-02-11T11:49:56.877Z,69.65
2023-02-11T11:53:36.426Z,68.97
2023-02-11T11:56:45.998Z,68.77
2023-02-11T11:59:48.688Z,69.47
2023-02-11T12:02:56.887Z,70.11
2023-02-11T12:06:07.968Z,71.06
2023-02-11T12:09:25.966Z,71.74
2023-02-11T12:12:53.449Z,70.64
2023-02-11T12:16:16.528Z,69.38
2023-02-11T12:19:30.743Z,67.85
2023-02-11T12:23:05.199Z,67.91
2023-02-11T12:26:16.007Z,67.36
2023-02-11T12:29:33.763Z,66.56
2023-02-11T12:32:48.042Z,66.98
2023-02-11T12:36:01.350Z,66.62
2023-02-11T12:39:17.313Z,66.39
2023-02-11T12:43:13.739Z,67.77
2023-02-11T12:46:31.358Z,66.51
2023-02-11T12:49:54.106Z,65.79
2023-02-11T12:53:15.170Z,64.37
2023-02-11T12:56:41.871Z,61.38
2023-02-11T13:00:00.865Z,57.77
2023-02-11T13:03:09.575Z,55.56
2023-02-11T13:06:15.665Z,55.32
2023-02-11T13:09:33.277Z,56.33
2023-02-11T13:12:55.675Z,55.06
2023-02-11T13:16:32.539Z,55.43
2023-02-11T13:19:44.703Z,57.06
2023-02-11T13:23:01.928Z,56.60
2023-02-11T13:26:24.467Z,55.56
2023-02-11T13:30:03.017Z,55.94
2023-02-11T13:33:17.031Z,55.46
2023-02-11T13:36:21.218Z,54.03
2023-02-11T13:39:24.671Z,58.14
2023-02-11T13:42:29.040Z,57.60
2023-02-11T13:45:42.021Z,55.90
2023-02-11T13:48:53.076Z,53.64
2023-02-11T13:51:56.712Z,52.31
2023-02-11T13:55:22.820Z,50.95
2023-02-11T13:58:28.630Z,51.08
2023-02-11T14:02:09.360Z,53.33
2023-02-11T14:05:42.565Z,55.80
2023-02-11T14:09:08.878Z,58.76
2023-02-11T14:12:33.679Z,61.37
2023-02-11T14:15:40.111Z,62.50
2023-02-11T14:18:45.290Z,63.76
2023-02-11T14:21:47.794Z,63.47
2023-02-11T14:25:01.526Z,63.54
2023-02-11T14:28:15.470Z,64.25
2023-02-11T14:31:27.313Z,64.89
2023-02-11T14:34:51.454Z,64.55
2023-02-11T14:38:11.794Z,64.42
2023-02-11T14:41:25.637Z,65.66
2023-02-11T14:44:30.752Z,65.62
2023-02-11T14:47:58.288Z,66.61
2023-02-11T14:51:02.164Z,66.33
2023-02-11T14:54:13.423Z,66.59
2023-02-11T14:57:19.213Z,67.18
2023-02-11T15:00:22.903Z,67.68
2023-02-11T15:03:27.144Z,67.74
2023-02-11T15:06:49.678Z,68.93
2023-02-11T15:09:53.811Z,71.40
2023-02-11T15:12:56.553Z,73.14
2023-02-11T15:16:06.854Z,74.17
2023-02-11T15:19:20.087Z,75.39
2023-02-11T15:22:25.919Z,75.99
2023-02-11T15:25:34.363Z,75.80
2023-02-11T15:28:37.222Z,75.99
2023-02-11T15:31:40.076Z,76.74
2023-02-11T15:34:43.778Z,77.13
2023-02-11T15:37:47.381Z,77.47
2023-02-11T15:40:57.524Z,77.76
2023-02-11T15:44:00.182Z,77.83
2023-02-11T15:47:02.576Z,77.62
2023-02-11T15:50:06.411Z,77.05
2023-02-11T15:53:22.468Z,76.71
2023-02-11T15:56:37.627Z,76.72
2023-02-11T15:59:45.545Z,77.91
2023-02-11T16:02:50.799Z,78.97
2023-02-11T16:05:55.578Z,80.06
2023-02-11T16:09:13.015Z,80.55
2023-02-11T16:12:29.267Z,79.95
2023-02-11T16:15:55.451Z,79.96
2023-02-11T16:19:05.835Z,80.42
2023-02-11T16:22:11.712Z,80.50
2023-02-11T16:25:19.161Z,81.01
2023-02-11T16:28:21.998Z,81.14
2023-02-11T16:31:36.063Z,81.48
2023-02-11T16:34:38.518Z,81.59
2023-02-11T16:37:41.224Z,81.93
2023-02-11T16:40:46.193Z,81.69
2023-02-11T16:43:48.882Z,81.18
2023-02-11T16:46:52.603Z,80.82
2023-02-11T16:49:55.860Z,81.86
2023-02-11T16:52:59.465Z,82.62
2023-02-11T16:56:02.529Z,83.95
2023-02-11T16:59:05.152Z,83.43
2023-02-11T17:02:24.157Z,82.80
2023-02-11T17:05:27.078Z,83.07
2023-02-11T17:08:30.003Z,81.92
2023-02-11T17:11:32.667Z,82.14
2023-02-11T17:14:35.346Z,81.97
2023-02-11T17:17:38.026Z,82.71
2023-02-11T17:20:41.530Z,82.44
2023-02-11T17:23:45.888Z,83.23
2023-02-11T17:26:48.789Z,83.09
2023-02-11T17:29:51.438Z,83.33
2023-02-11T17:32:54.031Z,82.61
2023-02-11T17:35:56.658Z,83.14
2023-02-11T17:39:00.322Z,83.41
2023-02-11T17:42:03.242Z,84.24
2023-02-11T17:45:06.158Z,84.65
2023-02-11T17:48:08.888Z,84.93
2023-02-11T17:51:25.163Z,84.15
2023-02-11T17:54:27.917Z,84.95
2023-02-11T17:57:30.300Z,85.24
2023-02-11T18:00:33.177Z,85.75
2023-02-11T18:03:36.456Z,86.03
2023-02-11T18:06:39.185Z,86.25
2023-02-11T18:09:42.115Z,85.60
2023-02-11T18:12:45.123Z,85.09
2023-02-11T18:15:47.840Z,84.17
2023-02-11T18:18:51.058Z,84.27
2023-02-11T18:21:54.033Z,83.92
2023-02-11T18:24:56.822Z,84.18
2023-02-11T18:27:59.529Z,83.94
2023-02-11T18:31:02.595Z,83.56
2023-02-11T18:34:07.625Z,83.51
2023-02-11T18:37:11.547Z,83.41
2023-02-11T18:40:15.394Z,83.23
2023-02-11T18:43:19.926Z,83.32
2023-02-11T18:46:22.554Z,84.15
2023-02-11T18:49:25.380Z,83.36
2023-02-11T18:52:28.140Z,83.26
2023-02-11T18:55:31.570Z,83.86
2023-02-11T18:58:34.257Z,82.56
2023-02-11T19:01:40.039Z,81.83
2023-02-11T19:04:42.959Z,81.67
2023-02-11T19:07:45.727Z,81.87
2023-02-11T19:10:49.455Z,81.58
2023-02-11T19:13:52.180Z,80.82
2023-02-11T19:16:57.310Z,80.71
2023-02-11T19:20:00.002Z,80.88
2023-02-11T19:23:02.849Z,80.41
2023-02-11T19:26:06.541Z,80.24
2023-02-11T19:29:10.624Z,80.59
2023-02-11T19:32:13.315Z,80.56
2023-02-11T19:35:16.195Z,81.05
2023-02-11T19:38:19.205Z,80.47
2023-02-11T19:41:23.212Z,80.33
2023-02-11T19:44:26.211Z,80.34
2023-02-11T19:47:29.033Z,79.60
2023-02-11T19:50:31.779Z,79.91
2023-02-11T19:53:34.832Z,79.69
2023-02-11T19:56:38.031Z,79.51
2023-02-11T19:59:40.744Z,79.22
2023-02-11T20:02:43.553Z,79.48
2023-02-11T20:05:47.885Z,79.24
2023-02-11T20:08:59.261Z,79.46
2023-02-11T20:12:02.053Z,79.29
2023-02-11T20:15:04.993Z,79.25
2023-02-11T20:18:07.786Z,79.50
2023-02-11T20:21:19.216Z,78.96
2023-02-11T20:24:24.805Z,79.34
2023-02-11T20:27:29.462Z,79.48
2023-02-11T20:30:32.201Z,79.03
2023-02-11T20:33:34.983Z,79.53
2023-02-11T20:36:38.733Z,78.83
2023-02-11T20:39:44.821Z,79.32
2023-02-11T20:42:47.516Z,79.23
2023-02-11T20:45:50.379Z,79.15
2023-02-11T20:48:55.110Z,79.29
2023-02-11T20:51:58.549Z,79.06
2023-02-11T20:55:01.689Z,79.38
2023-02-11T20:58:05.764Z,78.83
2023-02-11T21:01:16.707Z,78.88
2023-02-11T21:04:22.501Z,78.67
2023-02-11T21:07:28.166Z,78.05
2023-02-11T21:10:30.668Z,79.04
2023-02-11T21:13:34.298Z,78.81
2023-02-11T21:16:37.561Z,78.65
2023-02-11T21:19:41.582Z,78.04
2023-02-11T21:22:44.351Z,78.82
2023-02-11T21:25:47.126Z,78.71
2023-02-11T21:28:50.094Z,78.79
2023-02-11T21:31:52.855Z,78.24
2023-02-11T21:34:56.643Z,78.88
2023-02-11T21:37:59.322Z,79.05
2023-02-11T21:41:05.558Z,79.09
2023-02-11T21:44:09.174Z,79.41
2023-02-11T21:47:11.940Z,79.49
2023-02-11T21:50:14.802Z,80.05
2023-02-11T21:53:17.449Z,80.08
2023-02-11T21:56:20.093Z,80.29
2023-02-11T21:59:22.721Z,80.86
2023-02-11T22:02:25.401Z,81.72
2023-02-11T22:05:27.855Z,81.74
2023-02-11T22:08:30.757Z,82.17
2023-02-11T22:11:33.619Z,82.55
2023-02-11T22:14:36.541Z,82.94
2023-02-11T22:17:38.956Z,83.63
2023-02-11T22:20:41.471Z,83.72
2023-02-11T22:23:44.376Z,84.12
2023-02-11T22:26:46.988Z,84.59
2023-02-11T22:29:49.369Z,84.63
2023-02-11T22:32:51.846Z,85.06
2023-02-11T22:36:04.962Z,85.07
2023-02-11T22:39:17.628Z,85.76
2023-02-11T22:42:20.561Z,85.90
2023-02-11T22:45:23.014Z,87.13
2023-02-11T22:48:25.816Z,87.06
2023-02-11T22:51:30.009Z,87.68
2023-02-11T22:54:32.439Z,86.81
2023-02-11T22:57:34.883Z,86.42
2023-02-11T23:00:39.706Z,86.66
2023-02-11T23:03:42.521Z,87.14
2023-02-11T23:06:47.502Z,86.39
2023-02-11T23:09:50.519Z,86.64
2023-02-11T23:12:53.036Z,85.89
2023-02-11T23:15:55.853Z,86.20
2023-02-11T23:19:00.269Z,86.43
2023-02-11T23:22:03.538Z,86.32
2023-02-11T23:25:05.977Z,87.08
2023-02-11T23:28:08.666Z,86.81
2023-02-11T23:31:14.138Z,86.84
2023-02-11T23:34:25.178Z,87.12
2023-02-11T23:37:27.567Z,87.13
2023-02-11T23:40:30.058Z,86.94
2023-02-11T23:43:32.835Z,87.29
2023-02-11T23:46:35.292Z,87.55
2023-02-11T23:49:37.712Z,88.25
2023-02-11T23:52:40.150Z,88.33
2023-02-11T23:55:43.400Z,88.51
2023-02-11T23:58:48.686Z,89.13
